Mobile Site You Are Here >  >  >  >  > 2012-13 Game Log

Brandon Triche 2012-13 Game Log

Position: Guard

Height: 6-4 ▪ Weight: 210

High School: Jamesville-DeWitt

School: Syracuse
Career: 147 G, 10.6 PPG, 2.6 RPG, 3.0 APG

20

Game Log

Rk Date School Opponent Type GS MP FG FGA FG% 2P 2PA 2P% 3P 3PA 3P% FT FTA FT% ORB DRB TRB AST STL BLK TOV PF PTS
1 2012-11-11 Syracuse N San Diego State REG W 1 39 6 11 .545 6 11 .545 0 0 3 6 .500 2 1 3 4 3 0 5 2 15
2 2012-11-18 Syracuse Wagner REG W 1 29 8 14 .571 7 9 .778 1 5 .200 4 5 .800 4 3 7 2 0 0 2 2 21
3 2012-11-21 Syracuse Princeton REG W 1 34 3 11 .273 3 8 .375 0 3 .000 4 4 1.000 0 1 1 3 3 0 5 1 10
4 2012-11-25 Syracuse Colgate REG W 1 27 4 10 .400 3 7 .429 1 3 .333 6 6 1.000 2 1 3 3 1 0 1 1 15
5 2012-11-30 Syracuse @ Arkansas REG W 1 31 7 16 .438 5 9 .556 2 7 .286 1 2 .500 2 1 3 3 4 0 3 4 17
6 2012-12-03 Syracuse Eastern Michigan REG W 1 28 5 11 .455 3 6 .500 2 5 .400 0 0 1 3 4 5 3 1 4 0 12
7 2012-12-06 Syracuse Long Beach State REG W 1 24 3 10 .300 1 5 .200 2 5 .400 3 4 .750 1 4 5 5 1 1 2 1 11
8 2012-12-08 Syracuse Monmouth REG W 1 29 6 16 .375 3 8 .375 3 8 .375 3 4 .750 3 2 5 8 0 0 0 1 18
9 2012-12-15 Syracuse Canisius REG W 1 35 7 11 .636 5 8 .625 2 3 .667 3 5 .600 2 1 3 5 0 0 2 2 19
10 2012-12-17 Syracuse Detroit Mercy REG W 1 29 1 6 .167 1 4 .250 0 2 .000 5 9 .556 4 0 4 1 1 0 3 5 7
11 2012-12-22 Syracuse N Temple REG L 1 39 7 12 .583 6 9 .667 1 3 .333 2 4 .500 1 2 3 1 2 0 3 2 17
12 2012-12-29 Syracuse Alcorn State REG W 1 28 1 7 .143 1 5 .200 0 2 .000 3 5 .600 2 0 2 2 2 0 3 3 5
13 2012-12-31 Syracuse Central Connecticut State REG W 1 23 5 11 .455 3 5 .600 2 6 .333 1 1 1.000 1 0 1 2 0 1 3 3 13
14 2013-01-02 Syracuse Rutgers REG W 1 31 8 11 .727 3 4 .750 5 7 .714 4 4 1.000 0 3 3 6 4 0 1 0 25
15 2013-01-06 Syracuse @ South Florida REG W 1 40 8 13 .615 8 10 .800 0 3 .000 4 4 1.000 1 2 3 4 2 0 3 1 20
16 2013-01-09 Syracuse @ Providence REG W 1 39 2 10 .200 2 6 .333 0 4 .000 0 0 2 2 4 5 1 0 4 2 4
17 2013-01-12 Syracuse Villanova REG W 1 25 1 8 .125 0 4 .000 1 4 .250 7 8 .875 2 2 4 2 1 0 3 4 10
18 2013-01-19 Syracuse @ Louisville REG W 1 38 9 13 .692 4 6 .667 5 7 .714 0 1 .000 2 4 6 2 0 0 1 1 23
19 2013-01-21 Syracuse Cincinnati REG W 1 36 6 13 .462 5 7 .714 1 6 .167 0 1 .000 0 2 2 3 0 0 0 0 13
20 2013-01-26 Syracuse @ Villanova REG L 1 41 7 18 .389 4 10 .400 3 8 .375 6 8 .750 2 2 4 4 1 0 1 2 23
21 2013-02-02 Syracuse @ Pittsburgh REG L 1 33 4 14 .286 4 9 .444 0 5 .000 6 7 .857 2 0 2 1 1 0 6 2 14
22 2013-02-04 Syracuse Notre Dame REG W 1 37 2 9 .222 2 4 .500 0 5 .000 3 3 1.000 1 4 5 6 1 0 2 2 7
23 2013-02-10 Syracuse St. John's (NY) REG W 1 36 5 10 .500 3 4 .750 2 6 .333 4 4 1.000 0 5 5 7 1 0 3 1 16
24 2013-02-13 Syracuse @ Connecticut REG L 1 38 3 15 .200 3 8 .375 0 7 .000 3 6 .500 1 2 3 3 1 0 3 3 9
25 2013-02-16 Syracuse @ Seton Hall REG W 1 40 10 18 .556 6 11 .545 4 7 .571 5 7 .714 4 2 6 5 2 0 1 2 29
26 2013-02-20 Syracuse Providence REG W 1 27 5 11 .455 4 8 .500 1 3 .333 3 3 1.000 1 2 3 2 2 0 2 1 14
27 2013-02-23 Syracuse Georgetown REG L 1 37 4 13 .308 3 6 .500 1 7 .143 1 2 .500 1 1 2 1 1 0 4 4 10
28 2013-02-25 Syracuse @ Marquette REG L 1 37 4 10 .400 4 7 .571 0 3 .000 0 0 2 0 2 8 0 0 3 5 8
29 2013-03-02 Syracuse Louisville REG L 1 38 2 11 .182 2 8 .250 0 3 .000 4 4 1.000 0 4 4 5 2 0 7 4 8
30 2013-03-06 Syracuse DePaul REG W 1 35 4 9 .444 4 7 .571 0 2 .000 7 9 .778 2 3 5 4 0 1 3 4 15
31 2013-03-09 Syracuse @ Georgetown REG L 1 29 1 9 .111 1 7 .143 0 2 .000 0 0 1 1 2 1 1 0 1 0 2
32 2013-03-13 Syracuse N Seton Hall CTOURN W 1 37 6 9 .667 4 5 .800 2 4 .500 3 3 1.000 1 0 1 5 2 0 2 1 17
33 2013-03-14 Syracuse N Pittsburgh CTOURN W 1 35 5 11 .455 3 6 .500 2 5 .400 0 2 .000 0 3 3 3 0 1 1 3 12
34 2013-03-15 Syracuse N Georgetown CTOURN W 1 34 4 7 .571 3 4 .750 1 3 .333 4 6 .667 1 2 3 3 0 0 1 4 13
35 2013-03-16 Syracuse N Louisville CTOURN L 1 32 3 12 .250 2 7 .286 1 5 .200 3 4 .750 2 1 3 1 1 0 7 4 10
36 2013-03-21 Syracuse N Montana NCAA W 1 29 5 6 .833 3 4 .750 2 2 1.000 8 10 .800 0 1 1 4 4 0 2 2 20
37 2013-03-23 Syracuse N California NCAA W 1 40 1 8 .125 0 7 .000 1 1 1.000 5 8 .625 1 3 4 2 2 0 3 1 8
38 2013-03-28 Syracuse N Indiana NCAA W 1 35 6 12 .500 6 10 .600 0 2 .000 2 3 .667 1 2 3 2 1 0 6 1 14
39 2013-03-30 Syracuse N Marquette NCAA W 1 35 3 10 .300 2 5 .400 1 5 .200 2 2 1.000 1 5 6 3 0 0 1 0 9
40 2013-04-06 Syracuse N Michigan NCAA L 1 39 4 9 .444 4 7 .571 0 2 .000 3 4 .750 1 2 3 8 0 0 2 5 11
40 Games 40 1348 185 445 .416 136 275 .495 49 170 .288 125 168 .744 57 79 136 144 51 5 109 86 544